createdAt,value
2022-08-21T00:00:31.592Z,100684.75
2022-08-21T00:03:05.670Z,100690.00
2022-08-21T00:05:33.996Z,100694.00
2022-08-21T00:08:05.118Z,100685.53
2022-08-21T00:10:32.518Z,100682.47
2022-08-21T00:13:02.258Z,100679.44
2022-08-21T00:15:34.798Z,100680.16
2022-08-21T00:18:04.477Z,100687.69
2022-08-21T00:20:36.752Z,100687.75
2022-08-21T00:23:06.046Z,100689.44
2022-08-21T00:25:33.661Z,100688.94
2022-08-21T00:28:00.643Z,100688.84
2022-08-21T00:30:27.940Z,100678.22
2022-08-21T00:32:56.440Z,100685.50
2022-08-21T00:35:34.141Z,100671.94
2022-08-21T00:38:01.568Z,100677.69
2022-08-21T00:40:43.648Z,100686.16
2022-08-21T00:43:13.376Z,100674.31
2022-08-21T00:45:40.632Z,100685.28
2022-08-21T00:48:07.463Z,100681.47
2022-08-21T00:50:40.584Z,100681.97
2022-08-21T00:53:07.915Z,100685.28
2022-08-21T00:55:38.375Z,100677.88
2022-08-21T00:58:09.490Z,100682.41
2022-08-21T01:00:44.278Z,100682.34
2022-08-21T01:03:14.885Z,100673.50
2022-08-21T01:05:45.161Z,100677.50
2022-08-21T01:08:13.366Z,100680.50
2022-08-21T01:10:42.634Z,100686.97
2022-08-21T01:13:11.029Z,100679.75
2022-08-21T01:15:40.071Z,100686.50
2022-08-21T01:18:08.980Z,100685.53
2022-08-21T01:20:36.880Z,100684.09
2022-08-21T01:23:04.633Z,100691.34
2022-08-21T01:25:33.054Z,100675.03
2022-08-21T01:28:05.819Z,100685.03
2022-08-21T01:30:36.204Z,100680.34
2022-08-21T01:33:03.443Z,100684.97
2022-08-21T01:35:30.323Z,100689.50
2022-08-21T01:37:57.037Z,100693.88
2022-08-21T01:40:23.940Z,100701.28
2022-08-21T01:42:50.835Z,100698.81
2022-08-21T01:45:17.915Z,100694.97
2022-08-21T01:47:47.518Z,100696.44
2022-08-21T01:50:21.232Z,100706.66
2022-08-21T01:52:48.482Z,100698.25
2022-08-21T01:55:19.089Z,100695.06
2022-08-21T01:57:47.063Z,100692.59
2022-08-21T02:00:21.188Z,100677.88
2022-08-21T02:03:00.026Z,100680.44
2022-08-21T02:05:26.929Z,100675.59
2022-08-21T02:08:00.311Z,100677.59
2022-08-21T02:10:36.963Z,100689.66
2022-08-21T02:15:56.722Z,100685.75
2022-08-21T02:18:24.486Z,100685.31
2022-08-21T02:21:22.364Z,100694.78
2022-08-21T02:24:07.695Z,100687.88
2022-08-21T02:29:45.354Z,100682.97
2022-08-21T02:32:17.103Z,100692.34
2022-08-21T02:34:47.067Z,100691.25
2022-08-21T02:37:36.089Z,100694.41
2022-08-21T02:40:39.367Z,100693.66
2022-08-21T02:43:22.346Z,100682.88
2022-08-21T02:45:54.504Z,100692.84
2022-08-21T02:48:27.976Z,100692.59
2022-08-21T02:51:18.440Z,100680.44
2022-08-21T02:53:49.243Z,100687.13
2022-08-21T02:56:24.623Z,100690.97
2022-08-21T02:58:58.952Z,100685.19
2022-08-21T03:01:26.108Z,100682.09
2022-08-21T03:03:53.094Z,100685.34
2022-08-21T03:07:04.189Z,100683.53
2022-08-21T03:10:12.288Z,100683.13
2022-08-21T03:12:39.155Z,100689.06
2022-08-21T03:15:18.461Z,100684.25
2022-08-21T03:21:42.227Z,100688.81
2022-08-21T03:24:30.990Z,100687.09
2022-08-21T03:31:03.477Z,100687.38
2022-08-21T03:33:56.119Z,100685.84
2022-08-21T03:40:24.752Z,100679.75
2022-08-21T03:43:00.085Z,100681.72
2022-08-21T03:45:35.909Z,100696.88
2022-08-21T03:48:04.865Z,100683.88
2022-08-21T03:50:51.018Z,100684.59
2022-08-21T03:53:18.170Z,100684.91
2022-08-21T03:55:50.306Z,100691.94
2022-08-21T03:58:19.046Z,100692.38
2022-08-21T04:00:53.082Z,100695.66
2022-08-21T04:03:26.997Z,100689.97
2022-08-21T04:06:01.009Z,100695.91
2022-08-21T04:11:32.861Z,100687.47
2022-08-21T04:14:05.773Z,100694.53
2022-08-21T04:16:49.922Z,100697.50
2022-08-21T04:19:25.713Z,100696.22
2022-08-21T04:21:53.924Z,100703.03
2022-08-21T04:24:24.803Z,100705.00
2022-08-21T04:26:56.658Z,100700.19
2022-08-21T04:29:42.333Z,100707.41
2022-08-21T04:32:23.129Z,100700.34
2022-08-21T04:35:12.814Z,100701.16
2022-08-21T04:37:42.008Z,100702.56
2022-08-21T04:40:18.010Z,100696.78
2022-08-21T04:46:22.933Z,100697.63
2022-08-21T04:48:49.855Z,100704.00
2022-08-21T04:51:31.285Z,100698.91
2022-08-21T04:54:15.781Z,100704.69
2022-08-21T04:57:13.334Z,100695.50
2022-08-21T04:59:43.583Z,100701.03
2022-08-21T05:02:11.101Z,100701.59
2022-08-21T05:04:45.075Z,100705.25
2022-08-21T05:07:43.173Z,100695.91
2022-08-21T05:10:43.152Z,100703.72
2022-08-21T05:13:36.905Z,100700.44
2022-08-21T05:16:37.110Z,100701.03
2022-08-21T05:19:08.552Z,100707.66
2022-08-21T05:21:35.721Z,100714.31
2022-08-21T05:24:05.867Z,100716.44
2022-08-21T05:26:49.358Z,100704.97
2022-08-21T05:29:18.154Z,100710.50
2022-08-21T05:31:46.520Z,100719.25
2022-08-21T05:34:16.088Z,100716.84
2022-08-21T05:36:43.148Z,100729.03
2022-08-21T05:39:09.931Z,100718.84
2022-08-21T05:41:36.712Z,100720.56
2022-08-21T05:44:03.601Z,100724.78
2022-08-21T05:46:37.719Z,100713.50
2022-08-21T05:49:04.499Z,100720.53
2022-08-21T05:51:31.904Z,100724.78
2022-08-21T05:53:58.740Z,100723.78
2022-08-21T05:56:25.443Z,100724.09
2022-08-21T05:58:52.142Z,100717.00
2022-08-21T06:01:18.928Z,100717.00
2022-08-21T06:03:45.697Z,100726.91
2022-08-21T06:06:12.579Z,100727.59
2022-08-21T06:08:39.411Z,100727.06
2022-08-21T06:11:10.015Z,100736.66
2022-08-21T06:13:40.148Z,100734.00
2022-08-21T06:16:15.680Z,100734.25
2022-08-21T06:18:44.883Z,100737.22
2022-08-21T06:21:12.761Z,100732.00
2022-08-21T06:27:38.849Z,100731.16
2022-08-21T06:30:17.885Z,100743.47
2022-08-21T07:39:15.872Z,100731.09
2022-08-21T07:41:46.353Z,100727.63
2022-08-21T07:44:15.949Z,100733.28
2022-08-21T07:46:55.035Z,100736.22
2022-08-21T07:49:34.064Z,100727.59
2022-08-21T07:52:24.899Z,100733.38
2022-08-21T07:55:24.686Z,100737.19
2022-08-21T08:05:28.491Z,100726.00
2022-08-21T08:08:15.984Z,100726.38
2022-08-21T08:11:09.174Z,100736.00
2022-08-21T08:14:26.524Z,100724.38
2022-08-21T08:20:52.040Z,100730.44
2022-08-21T08:45:15.082Z,100735.25
2022-08-21T08:54:53.892Z,100722.03
2022-08-21T08:57:25.377Z,100730.34
2022-08-21T09:00:02.574Z,100719.41
2022-08-21T09:02:34.645Z,100721.03
2022-08-21T09:05:07.405Z,100713.13
2022-08-21T09:08:10.261Z,100721.59
2022-08-21T09:10:57.727Z,100718.19
2022-08-21T09:14:05.154Z,100718.03
2022-08-21T09:16:40.643Z,100714.88
2022-08-21T09:19:57.194Z,100721.81
2022-08-21T09:23:18.406Z,100715.09
2022-08-21T09:52:01.831Z,100713.00
2022-08-21T09:54:48.065Z,100699.31
2022-08-21T10:01:15.356Z,100712.03
2022-08-21T10:31:28.560Z,100718.41
2022-08-21T10:34:04.095Z,100730.59
2022-08-21T10:36:36.796Z,100730.75
2022-08-21T10:39:34.889Z,100717.59
2022-08-21T10:42:27.472Z,100726.84
2022-08-21T10:45:13.488Z,100716.88
2022-08-21T10:47:57.337Z,100720.25
2022-08-21T10:50:34.866Z,100723.09
2022-08-21T10:53:04.588Z,100724.81
2022-08-21T10:56:09.630Z,100719.53
2022-08-21T10:58:51.867Z,100722.94
2022-08-21T11:01:26.036Z,100713.94
2022-08-21T11:03:55.942Z,100720.72
2022-08-21T11:06:25.752Z,100720.91
2022-08-21T11:09:00.827Z,100720.88
2022-08-21T11:11:35.836Z,100718.69
2022-08-21T11:14:21.783Z,100726.97
2022-08-21T11:17:00.687Z,100720.38
2022-08-21T11:19:36.406Z,100725.09
2022-08-21T11:22:27.114Z,100719.97
2022-08-21T11:25:19.289Z,100721.13
2022-08-21T11:28:14.827Z,100717.94
2022-08-21T11:31:03.864Z,100723.66
2022-08-21T11:33:33.689Z,100717.53
2022-08-21T11:36:08.591Z,100719.56
2022-08-21T11:38:43.413Z,100724.28
2022-08-21T11:41:47.397Z,100713.63
2022-08-21T11:44:29.454Z,100715.22
2022-08-21T11:47:40.587Z,100719.19
2022-08-21T11:50:34.914Z,100726.25
2022-08-21T11:53:13.663Z,100717.06
2022-08-21T11:55:51.564Z,100708.56
2022-08-21T11:58:24.374Z,100718.69
2022-08-21T12:00:53.837Z,100715.44
2022-08-21T12:03:30.066Z,100717.94
2022-08-21T12:06:00.447Z,100717.63
2022-08-21T12:08:31.672Z,100711.38
2022-08-21T12:11:10.948Z,100714.59
2022-08-21T12:13:42.656Z,100709.69
2022-08-21T12:16:15.444Z,100709.50
2022-08-21T12:18:43.215Z,100710.59
2022-08-21T12:21:29.511Z,100706.19
2022-08-21T12:24:14.503Z,100709.13
2022-08-21T12:27:25.940Z,100711.84
2022-08-21T12:29:59.983Z,100712.84
2022-08-21T12:32:32.325Z,100701.38
2022-08-21T12:35:06.354Z,100703.22
2022-08-21T12:37:47.200Z,100703.41
2022-08-21T12:40:30.180Z,100699.94
2022-08-21T12:43:01.000Z,100706.78
2022-08-21T12:45:39.837Z,100702.53
2022-08-21T12:48:15.891Z,100693.28
2022-08-21T12:50:48.785Z,100698.00
2022-08-21T12:53:27.840Z,100693.75
2022-08-21T12:56:00.975Z,100697.34
2022-08-21T12:58:28.691Z,100696.34
2022-08-21T13:01:08.165Z,100698.34
2022-08-21T13:03:37.431Z,100685.06
2022-08-21T13:06:05.828Z,100684.09
2022-08-21T13:08:39.489Z,100682.09
2022-08-21T13:11:09.292Z,100680.56
2022-08-21T13:13:46.850Z,100688.97
2022-08-21T13:16:27.609Z,100680.22
2022-08-21T13:19:02.702Z,100684.88
2022-08-21T13:21:40.692Z,100679.91
2022-08-21T13:24:31.987Z,100671.94
2022-08-21T13:26:58.534Z,100673.09
2022-08-21T13:29:30.247Z,100665.25
2022-08-21T13:32:01.044Z,100666.72
2022-08-21T13:34:29.868Z,100678.47
2022-08-21T13:37:01.114Z,100668.91
2022-08-21T13:39:27.859Z,100667.88
2022-08-21T13:41:59.504Z,100667.66
2022-08-21T13:44:35.380Z,100670.38
2022-08-21T13:47:03.905Z,100667.81
2022-08-21T13:49:33.801Z,100670.75
2022-08-21T13:52:00.586Z,100664.00
2022-08-21T13:54:33.425Z,100660.09
2022-08-21T13:57:00.135Z,100667.88
2022-08-21T13:59:36.557Z,100661.69
2022-08-21T14:02:14.197Z,100665.59
2022-08-21T14:04:46.988Z,100663.91
2022-08-21T14:07:29.757Z,100662.50
2022-08-21T14:09:56.706Z,100662.84
2022-08-21T14:12:29.732Z,100654.47
2022-08-21T14:14:57.846Z,100666.03
2022-08-21T14:17:33.445Z,100659.06
2022-08-21T14:20:00.979Z,100661.88
2022-08-21T14:22:46.221Z,100663.84
2022-08-21T14:25:19.597Z,100655.75
2022-08-21T14:27:55.970Z,100661.31
2022-08-21T14:30:25.325Z,100662.84
2022-08-21T14:32:52.181Z,100654.41
2022-08-21T14:35:23.556Z,100655.63
2022-08-21T14:37:51.589Z,100641.28
2022-08-21T14:40:22.550Z,100649.22
2022-08-21T14:42:52.832Z,100651.84
2022-08-21T14:45:29.587Z,100663.63
2022-08-21T14:47:57.489Z,100657.69
2022-08-21T14:50:24.706Z,100656.94
2022-08-21T14:52:57.453Z,100655.47
2022-08-21T14:55:24.697Z,100654.44
2022-08-21T14:57:53.151Z,100655.69
2022-08-21T15:00:27.018Z,100653.78
2022-08-21T15:03:03.184Z,100660.63
2022-08-21T15:05:33.835Z,100651.97
2022-08-21T15:08:01.656Z,100661.97
2022-08-21T15:10:28.940Z,100656.69
2022-08-21T15:12:56.214Z,100657.50
2022-08-21T15:15:22.921Z,100667.16
2022-08-21T15:17:49.657Z,100663.91
2022-08-21T15:20:16.357Z,100662.13
2022-08-21T15:22:58.178Z,100670.13
2022-08-21T15:25:25.018Z,100663.03
2022-08-21T15:27:52.120Z,100668.59
2022-08-21T15:30:18.891Z,100660.91
2022-08-21T15:32:45.737Z,100657.91
2022-08-21T15:35:12.454Z,100662.50
2022-08-21T15:37:39.187Z,100659.13
2022-08-21T15:40:08.213Z,100660.81
2022-08-21T15:42:35.336Z,100659.72
2022-08-21T15:45:02.339Z,100660.06
2022-08-21T15:47:31.231Z,100662.34
2022-08-21T15:49:58.020Z,100654.72
2022-08-21T15:52:24.834Z,100657.03
2022-08-21T15:54:52.350Z,100651.75
2022-08-21T15:57:22.212Z,100650.69
2022-08-21T15:59:53.443Z,100650.16
2022-08-21T16:02:23.586Z,100653.78
2022-08-21T16:04:50.324Z,100655.28
2022-08-21T16:07:17.178Z,100654.22
2022-08-21T16:09:44.088Z,100653.22
2022-08-21T16:12:14.415Z,100654.72
2022-08-21T16:14:41.163Z,100650.53
2022-08-21T16:17:08.514Z,100645.75
2022-08-21T16:19:35.947Z,100641.19
2022-08-21T16:22:02.886Z,100647.50
2022-08-21T16:24:29.598Z,100648.25
2022-08-21T16:26:58.008Z,100652.78
2022-08-21T16:29:35.077Z,100653.03
2022-08-21T16:32:02.322Z,100659.97
2022-08-21T16:34:29.477Z,100658.66
2022-08-21T16:36:56.210Z,100661.72
2022-08-21T16:39:23.245Z,100660.81
2022-08-21T16:41:51.212Z,100663.84
2022-08-21T16:44:20.052Z,100658.84
2022-08-21T16:46:46.813Z,100659.13
2022-08-21T16:49:13.925Z,100657.88
2022-08-21T16:51:40.632Z,100654.19
2022-08-21T16:54:09.891Z,100652.63
2022-08-21T16:56:39.752Z,100653.47
2022-08-21T16:59:07.340Z,100653.75
2022-08-21T17:01:35.399Z,100658.81
2022-08-21T17:04:03.486Z,100654.91
2022-08-21T17:06:31.384Z,100657.72
2022-08-21T17:08:58.991Z,100653.22
2022-08-21T17:11:37.897Z,100654.47
2022-08-21T17:14:12.631Z,100658.78
2022-08-21T17:16:41.618Z,100654.66
2022-08-21T17:19:08.761Z,100666.03
2022-08-21T17:21:35.671Z,100662.00
2022-08-21T17:24:02.622Z,100661.75
2022-08-21T17:26:29.663Z,100654.69
2022-08-21T17:28:56.432Z,100651.66
2022-08-21T17:31:23.289Z,100656.81
2022-08-21T17:33:53.749Z,100653.75
2022-08-21T17:36:28.875Z,100658.94
2022-08-21T17:38:56.815Z,100659.53
2022-08-21T17:41:25.153Z,100657.50
2022-08-21T17:43:52.320Z,100662.38
2022-08-21T17:46:22.568Z,100661.75
2022-08-21T17:48:49.389Z,100655.56
2022-08-21T17:51:17.081Z,100659.50
2022-08-21T17:53:45.100Z,100661.56
2022-08-21T17:56:14.732Z,100664.38
2022-08-21T17:58:44.062Z,100671.84
2022-08-21T18:01:11.265Z,100669.31
2022-08-21T18:03:38.373Z,100672.00
2022-08-21T18:06:07.669Z,100673.22
2022-08-21T18:08:35.035Z,100684.22
2022-08-21T18:11:01.974Z,100676.34
2022-08-21T18:13:33.276Z,100684.75
2022-08-21T18:16:01.232Z,100690.13
2022-08-21T18:18:29.543Z,100682.59
2022-08-21T18:20:56.356Z,100683.66
2022-08-21T18:23:43.113Z,100682.34
2022-08-21T18:26:10.261Z,100684.47
2022-08-21T18:28:38.596Z,100688.75
2022-08-21T18:31:08.944Z,100692.16
2022-08-21T18:33:37.405Z,100704.56
2022-08-21T18:36:04.820Z,100700.28
2022-08-21T18:38:31.782Z,100700.47
2022-08-21T18:40:59.836Z,100701.25
2022-08-21T18:43:27.012Z,100704.66
2022-08-21T18:45:54.203Z,100704.88
2022-08-21T18:48:21.105Z,100701.47
2022-08-21T18:50:53.682Z,100703.19
2022-08-21T18:53:27.311Z,100702.03
2022-08-21T18:55:56.947Z,100704.22
2022-08-21T18:58:25.290Z,100705.41
2022-08-21T19:00:52.819Z,100708.75
2022-08-21T19:03:23.921Z,100705.88
2022-08-21T19:05:52.711Z,100707.25
2022-08-21T19:08:21.583Z,100703.38
2022-08-21T19:10:49.709Z,100698.59
2022-08-21T19:13:35.571Z,100703.66
2022-08-21T19:20:07.469Z,100709.22
2022-08-21T19:23:40.419Z,100708.72
2022-08-21T19:26:33.011Z,100707.66
2022-08-21T19:29:45.872Z,100718.25
2022-08-21T19:40:57.761Z,100721.13
2022-08-21T19:43:59.326Z,100719.59
2022-08-21T19:56:22.472Z,100712.63
2022-08-21T20:02:48.831Z,100706.00
2022-08-21T20:06:02.965Z,100713.09
2022-08-21T20:08:58.031Z,100716.41
2022-08-21T20:12:47.616Z,100705.41
2022-08-21T20:15:41.788Z,100722.53
2022-08-21T20:21:46.195Z,100723.84
2022-08-21T20:25:22.629Z,100723.06
2022-08-21T20:32:32.549Z,100724.53
2022-08-21T20:36:07.297Z,100719.75
2022-08-21T20:39:56.188Z,100724.59
2022-08-21T20:43:03.331Z,100722.53
2022-08-21T20:50:38.864Z,100720.94
2022-08-21T20:54:19.773Z,100724.53
2022-08-21T21:02:32.734Z,100729.25
2022-08-21T21:24:57.781Z,100727.75
2022-08-21T21:58:39.485Z,100736.97
2022-08-21T23:10:55.445Z,100754.19
2022-08-21T23:13:47.231Z,100756.75
